createdAt,value
2023-04-27T00:01:20.443Z,102254.25
2023-04-27T00:03:47.346Z,102256.16
2023-04-27T00:06:17.362Z,102254.44
2023-04-27T00:08:43.857Z,102256.06
2023-04-27T00:11:10.234Z,102263.06
2023-04-27T00:13:39.768Z,102262.06
2023-04-27T00:16:09.049Z,102264.56
2023-04-27T00:18:35.538Z,102257.06
2023-04-27T00:21:06.586Z,102259.97
2023-04-27T00:23:32.896Z,102259.59
2023-04-27T00:25:59.282Z,102261.38
2023-04-27T00:28:29.835Z,102266.63
2023-04-27T00:30:58.902Z,102262.25
2023-04-27T00:33:29.591Z,102261.97
2023-04-27T00:36:00.858Z,102259.44
2023-04-27T00:38:30.909Z,102250.84
2023-04-27T00:41:04.671Z,102244.13
2023-04-27T00:43:31.595Z,102256.28
2023-04-27T00:45:59.343Z,102258.16
2023-04-27T00:48:29.060Z,102255.81
2023-04-27T00:50:58.386Z,102260.00
2023-04-27T00:53:25.371Z,102262.66
2023-04-27T00:55:58.011Z,102262.81
2023-04-27T00:58:27.854Z,102260.47
2023-04-27T01:00:54.332Z,102262.44
2023-04-27T01:03:21.139Z,102255.50
2023-04-27T01:05:51.022Z,102254.81
2023-04-27T01:08:20.331Z,102250.94
2023-04-27T01:10:54.450Z,102251.06
2023-04-27T01:13:20.827Z,102244.34
2023-04-27T01:15:47.219Z,102242.41
2023-04-27T01:18:19.803Z,102236.91
2023-04-27T01:20:50.129Z,102243.19
2023-04-27T01:23:21.929Z,102240.53
2023-04-27T01:25:48.426Z,102238.72
2023-04-27T01:28:14.786Z,102251.66
2023-04-27T01:30:49.708Z,102260.44
2023-04-27T01:33:16.386Z,102257.84
2023-04-27T01:35:43.091Z,102267.41
2023-04-27T01:38:09.739Z,102255.69
2023-04-27T01:40:39.306Z,102248.28
2023-04-27T01:43:08.496Z,102237.97
2023-04-27T01:45:34.919Z,102240.34
2023-04-27T01:48:01.540Z,102232.81
2023-04-27T01:50:28.002Z,102227.94
2023-04-27T01:52:57.570Z,102229.47
2023-04-27T01:55:26.765Z,102228.41
2023-04-27T01:57:53.083Z,102227.69
2023-04-27T02:00:22.696Z,102226.34
2023-04-27T02:02:51.182Z,102229.06
2023-04-27T02:05:20.202Z,102223.88
2023-04-27T02:07:52.414Z,102232.84
2023-04-27T02:10:18.844Z,102234.88
2023-04-27T02:12:49.282Z,102235.78
2023-04-27T02:15:18.469Z,102237.75
2023-04-27T02:17:45.577Z,102240.19
2023-04-27T02:20:22.417Z,102239.38
2023-04-27T02:22:50.146Z,102235.78
2023-04-27T02:25:16.951Z,102233.91
2023-04-27T02:27:43.565Z,102233.13
2023-04-27T02:32:59.599Z,102230.91
2023-04-27T02:35:29.041Z,102233.72
2023-04-27T02:37:55.474Z,102230.06
2023-04-27T02:40:31.344Z,102227.47
2023-04-27T02:42:57.702Z,102230.06
2023-04-27T02:45:29.839Z,102220.78
2023-04-27T02:48:00.398Z,102222.50
2023-04-27T02:50:40.089Z,102214.88
2023-04-27T02:53:06.999Z,102218.47
2023-04-27T02:55:34.322Z,102214.41
2023-04-27T02:58:00.881Z,102211.66
2023-04-27T03:00:27.374Z,102218.88
2023-04-27T03:02:58.226Z,102220.06
2023-04-27T03:05:29.002Z,102217.34
2023-04-27T03:07:56.018Z,102218.25
2023-04-27T03:10:28.784Z,102221.94
2023-04-27T03:12:56.029Z,102225.59
2023-04-27T03:15:31.234Z,102222.22
2023-04-27T03:17:57.666Z,102226.91
2023-04-27T03:20:29.503Z,102227.88
2023-04-27T03:22:59.654Z,102228.97
2023-04-27T03:25:29.484Z,102227.44
2023-04-27T03:27:58.624Z,102235.19
2023-04-27T03:30:25.022Z,102234.34
2023-04-27T03:32:51.462Z,102223.88
2023-04-27T03:35:17.953Z,102229.91
2023-04-27T03:37:45.957Z,102227.94
2023-04-27T03:40:16.443Z,102229.75
2023-04-27T03:42:45.429Z,102224.66
2023-04-27T03:45:12.184Z,102231.06
2023-04-27T03:47:44.773Z,102235.88
2023-04-27T03:50:11.345Z,102230.94
2023-04-27T03:52:37.725Z,102242.19
2023-04-27T03:55:09.350Z,102232.66
2023-04-27T03:57:35.945Z,102236.75
2023-04-27T04:00:02.299Z,102230.81
2023-04-27T04:02:31.933Z,102233.28
2023-04-27T04:05:01.545Z,102235.88
2023-04-27T04:07:28.968Z,102238.47
2023-04-27T04:10:05.532Z,102235.16
2023-04-27T04:12:32.344Z,102231.47
2023-04-27T04:14:59.140Z,102239.00
2023-04-27T04:17:28.344Z,102239.78
2023-04-27T04:19:57.339Z,102238.19
2023-04-27T04:22:24.905Z,102237.84
2023-04-27T04:24:51.396Z,102244.50
2023-04-27T04:27:17.846Z,102252.00
2023-04-27T04:29:48.153Z,102245.63
2023-04-27T04:32:17.757Z,102253.06
2023-04-27T04:34:51.687Z,102249.31
2023-04-27T04:37:20.721Z,102251.88
2023-04-27T04:39:50.325Z,102257.63
2023-04-27T04:42:19.294Z,102258.31
2023-04-27T04:44:45.736Z,102259.00
2023-04-27T04:47:16.335Z,102268.38
2023-04-27T04:49:45.626Z,102266.91
2023-04-27T04:52:12.004Z,102260.34
2023-04-27T04:54:42.347Z,102268.66
2023-04-27T04:57:11.671Z,102267.06
2023-04-27T04:59:44.504Z,102266.47
2023-04-27T05:02:13.789Z,102270.75
2023-04-27T05:04:42.520Z,102265.63
2023-04-27T05:07:16.087Z,102263.44
2023-04-27T05:09:48.882Z,102261.09
2023-04-27T05:12:18.427Z,102253.94
2023-04-27T05:14:44.824Z,102243.44
2023-04-27T05:17:11.690Z,102249.03
2023-04-27T05:19:45.375Z,102235.25
2023-04-27T05:22:14.796Z,102235.25
2023-04-27T05:24:48.353Z,102234.34
2023-04-27T05:32:43.921Z,102245.53
2023-04-27T05:35:13.451Z,102245.69
2023-04-27T05:40:29.354Z,102243.19
2023-04-27T05:42:55.782Z,102239.69
2023-04-27T05:45:22.503Z,102235.03
2023-04-27T05:47:52.982Z,102240.63
2023-04-27T05:50:19.480Z,102240.75
2023-04-27T05:52:46.298Z,102244.19
2023-04-27T05:55:21.097Z,102238.97
2023-04-27T05:57:54.473Z,102238.41
2023-04-27T06:00:34.262Z,102236.47
2023-04-27T06:03:00.996Z,102241.31
2023-04-27T06:05:30.695Z,102238.25
2023-04-27T06:10:46.064Z,102241.00
2023-04-27T06:13:12.445Z,102244.88
2023-04-27T06:15:38.876Z,102253.69
2023-04-27T06:18:10.001Z,102257.94
2023-04-27T06:20:39.528Z,102257.75
2023-04-27T06:23:10.566Z,102254.25
2023-04-27T06:25:40.539Z,102256.88
2023-04-27T06:28:06.907Z,102256.28
2023-04-27T06:30:37.488Z,102264.16
2023-04-27T06:33:04.677Z,102262.47
2023-04-27T06:35:31.531Z,102263.84
2023-04-27T06:38:01.384Z,102264.06
2023-04-27T06:40:30.537Z,102262.78
2023-04-27T06:42:59.665Z,102263.44
2023-04-27T06:45:26.111Z,102262.69
2023-04-27T06:47:52.571Z,102266.81
2023-04-27T06:50:19.099Z,102266.72
2023-04-27T06:52:48.746Z,102272.84
2023-04-27T06:55:18.473Z,102269.19
2023-04-27T06:57:45.108Z,102262.41
2023-04-27T07:00:18.157Z,102265.19
2023-04-27T07:02:44.766Z,102259.13
2023-04-27T07:05:11.228Z,102260.69
2023-04-27T07:07:38.363Z,102259.72
2023-04-27T07:10:08.254Z,102265.56
2023-04-27T07:12:40.699Z,102258.84
2023-04-27T07:15:10.696Z,102253.16
2023-04-27T07:17:44.544Z,102266.31
2023-04-27T07:20:11.328Z,102268.16
2023-04-27T07:22:37.795Z,102271.72
2023-04-27T07:25:08.849Z,102267.72
2023-04-27T07:27:35.984Z,102278.28
2023-04-27T07:30:03.097Z,102267.84
2023-04-27T07:32:41.306Z,102268.56
2023-04-27T07:35:12.088Z,102269.16
2023-04-27T07:37:41.578Z,102256.53
2023-04-27T07:40:16.660Z,102253.81
2023-04-27T07:42:46.453Z,102254.41
2023-04-27T07:45:12.983Z,102256.16
2023-04-27T07:47:47.418Z,102249.72
2023-04-27T07:50:31.399Z,102250.22
2023-04-27T07:53:01.698Z,102256.91
2023-04-27T07:55:32.634Z,102255.56
2023-04-27T07:58:01.549Z,102257.66
2023-04-27T08:00:34.939Z,102255.75
2023-04-27T08:03:02.219Z,102254.91
2023-04-27T08:07:58.569Z,102248.50
2023-04-27T08:10:25.203Z,102250.84
2023-04-27T08:12:54.659Z,102260.59
2023-04-27T08:15:24.279Z,102257.44
2023-04-27T08:17:50.773Z,102258.03
2023-04-27T08:20:20.770Z,102254.81
2023-04-27T08:22:47.184Z,102253.97
2023-04-27T08:25:13.549Z,102246.16
2023-04-27T08:27:44.172Z,102261.50
2023-04-27T08:30:13.815Z,102254.59
2023-04-27T08:32:48.102Z,102259.63
2023-04-27T08:35:14.719Z,102253.69
2023-04-27T08:37:41.166Z,102250.56
2023-04-27T08:40:11.298Z,102249.38
2023-04-27T08:42:53.148Z,102244.38
2023-04-27T08:45:20.312Z,102242.81
2023-04-27T08:47:46.745Z,102252.84
2023-04-27T08:52:59.843Z,102251.28
2023-04-27T08:55:26.423Z,102251.06
2023-04-27T08:58:01.398Z,102243.03
2023-04-27T09:00:47.501Z,102244.78
2023-04-27T09:03:25.651Z,102245.28
2023-04-27T09:06:03.819Z,102239.22
2023-04-27T09:08:53.143Z,102244.50
2023-04-27T09:11:54.927Z,102251.84
2023-04-27T09:14:23.093Z,102250.44
2023-04-27T09:16:59.947Z,102238.88
2023-04-27T09:19:33.557Z,102241.09
2023-04-27T09:22:14.101Z,102235.16
2023-04-27T09:25:01.240Z,102234.31
2023-04-27T09:27:27.621Z,102225.72
2023-04-27T09:29:58.235Z,102223.97
2023-04-27T09:32:27.838Z,102225.72
2023-04-27T09:34:54.202Z,102222.34
2023-04-27T09:37:24.274Z,102219.78
2023-04-27T09:39:53.524Z,102217.22
2023-04-27T09:42:24.238Z,102219.56
2023-04-27T09:44:54.214Z,102216.72
2023-04-27T09:47:20.862Z,102217.13
2023-04-27T09:52:33.622Z,102226.75
2023-04-27T09:55:01.245Z,102218.91
2023-04-27T09:57:40.507Z,102212.22
2023-04-27T10:00:32.321Z,102211.34
2023-04-27T10:03:36.655Z,102215.28
2023-04-27T10:06:17.522Z,102211.44
2023-04-27T10:08:48.804Z,102204.78
2023-04-27T10:11:23.225Z,102205.06
2023-04-27T10:13:54.874Z,102211.50
2023-04-27T10:19:17.140Z,102218.09
2023-04-27T10:22:04.650Z,102214.59
2023-04-27T10:24:42.688Z,102209.66
2023-04-27T10:27:20.091Z,102208.16
2023-04-27T10:29:54.304Z,102215.91
2023-04-27T10:32:25.410Z,102208.66
2023-04-27T10:35:07.498Z,102191.34
2023-04-27T10:37:44.747Z,102204.41
2023-04-27T10:40:21.777Z,102195.44
2023-04-27T10:42:51.790Z,102196.00
2023-04-27T10:45:31.725Z,102204.06
2023-04-27T10:48:03.413Z,102205.28
2023-04-27T10:50:33.013Z,102195.34
2023-04-27T10:53:04.857Z,102196.09
2023-04-27T10:55:35.551Z,102193.19
2023-04-27T10:58:02.807Z,102196.13
2023-04-27T11:00:31.789Z,102191.94
2023-04-27T11:03:19.874Z,102200.94
2023-04-27T11:05:57.646Z,102188.53
2023-04-27T11:08:25.327Z,102188.81
2023-04-27T11:10:54.910Z,102186.06
2023-04-27T11:13:25.575Z,102175.09
2023-04-27T11:15:56.834Z,102169.16
2023-04-27T11:18:30.599Z,102168.84
2023-04-27T11:21:15.624Z,102162.78
2023-04-27T11:23:46.199Z,102156.56
2023-04-27T11:26:23.817Z,102151.16
2023-04-27T11:29:27.214Z,102145.88
2023-04-27T11:31:56.816Z,102145.72
2023-04-27T11:34:30.071Z,102144.03
2023-04-27T11:37:18.572Z,102142.50
2023-04-27T11:39:45.728Z,102147.63
2023-04-27T11:42:35.764Z,102143.47
2023-04-27T11:45:06.489Z,102141.72
2023-04-27T11:47:37.874Z,102139.44
2023-04-27T11:50:08.597Z,102140.75
2023-04-27T11:52:42.440Z,102144.38
2023-04-27T11:55:23.417Z,102152.56
2023-04-27T11:58:01.895Z,102145.03
2023-04-27T12:00:31.469Z,102140.84
2023-04-27T12:02:58.146Z,102133.25
2023-04-27T12:05:33.619Z,102132.41
2023-04-27T12:08:00.099Z,102124.41
2023-04-27T12:10:31.358Z,102124.47
2023-04-27T12:13:00.675Z,102130.84
2023-04-27T12:15:30.125Z,102127.44
2023-04-27T12:17:56.559Z,102131.91
2023-04-27T12:20:23.000Z,102134.56
2023-04-27T12:22:49.317Z,102123.66
2023-04-27T12:25:19.616Z,102129.91
2023-04-27T12:27:49.317Z,102132.22
2023-04-27T12:32:59.543Z,102109.84
2023-04-27T12:35:26.290Z,102102.66
2023-04-27T12:37:52.739Z,102102.09
2023-04-27T12:40:19.364Z,102101.94
2023-04-27T12:42:48.467Z,102100.09
2023-04-27T12:45:17.618Z,102094.56
2023-04-27T12:48:01.081Z,102096.56
2023-04-27T12:50:34.278Z,102085.63
2023-04-27T12:53:03.769Z,102087.56
2023-04-27T12:55:34.511Z,102091.34
2023-04-27T12:58:04.860Z,102092.91
2023-04-27T13:00:34.156Z,102084.94
2023-04-27T13:03:07.904Z,102080.72
2023-04-27T13:05:34.356Z,102084.34
2023-04-27T13:08:05.389Z,102075.47
2023-04-27T13:10:31.977Z,102072.75
2023-04-27T13:12:59.540Z,102081.31
2023-04-27T13:15:28.957Z,102079.94
2023-04-27T13:17:59.078Z,102078.22
2023-04-27T13:23:14.591Z,102074.69
2023-04-27T13:25:44.728Z,102071.03
2023-04-27T13:28:13.628Z,102062.31
2023-04-27T13:30:42.951Z,102056.38
2023-04-27T13:35:53.270Z,102043.28
2023-04-27T13:38:22.425Z,102044.88
2023-04-27T13:40:48.891Z,102053.56
2023-04-27T13:43:15.362Z,102045.59
2023-04-27T13:45:42.885Z,102051.91
2023-04-27T13:48:16.371Z,102035.50
2023-04-27T13:50:48.128Z,102031.72
2023-04-27T13:53:17.356Z,102035.84
2023-04-27T13:55:44.548Z,102037.16
2023-04-27T13:58:13.912Z,102033.03
2023-04-27T14:00:40.413Z,102027.56
2023-04-27T14:03:16.209Z,102022.25
2023-04-27T14:05:48.221Z,102026.53
2023-04-27T14:08:19.013Z,102022.38
2023-04-27T14:10:49.010Z,102015.31
2023-04-27T14:15:58.463Z,102008.72
2023-04-27T14:18:32.278Z,102006.00
2023-04-27T14:21:00.241Z,102010.56
2023-04-27T14:23:36.651Z,102003.91
2023-04-27T14:26:10.366Z,101993.78
2023-04-27T14:28:36.839Z,101994.13
2023-04-27T14:31:03.169Z,101984.97
2023-04-27T14:33:51.043Z,101993.75
2023-04-27T14:36:21.652Z,101990.63
2023-04-27T14:38:48.009Z,101985.31
2023-04-27T14:41:17.735Z,101986.44
2023-04-27T14:43:48.482Z,101989.22
2023-04-27T14:46:21.387Z,101998.66
2023-04-27T14:48:48.593Z,101990.19
2023-04-27T14:51:15.911Z,101978.28
2023-04-27T14:53:51.263Z,101978.81
2023-04-27T14:56:17.687Z,101976.34
2023-04-27T14:58:44.064Z,101974.25
2023-04-27T15:01:11.108Z,101962.16
2023-04-27T15:03:41.815Z,101963.47
2023-04-27T15:06:11.243Z,101963.69
2023-04-27T15:08:40.688Z,101967.84
2023-04-27T15:11:07.239Z,101961.03
2023-04-27T15:13:36.752Z,101961.53
2023-04-27T15:16:04.847Z,101965.69
2023-04-27T15:18:39.258Z,101958.44
2023-04-27T15:21:08.843Z,101965.53
2023-04-27T15:23:39.442Z,101962.03
2023-04-27T15:26:09.319Z,101958.41
2023-04-27T15:28:36.249Z,101944.22
2023-04-27T15:31:05.850Z,101938.44
2023-04-27T15:33:35.136Z,101943.53
2023-04-27T15:36:02.043Z,101934.97
2023-04-27T15:38:31.584Z,101935.66
2023-04-27T15:41:01.051Z,101941.59
2023-04-27T15:43:29.974Z,101943.06
2023-04-27T15:46:03.949Z,101937.28
2023-04-27T15:48:30.355Z,101930.81
2023-04-27T15:51:09.536Z,101924.53
2023-04-27T15:53:48.837Z,101919.25
2023-04-27T15:56:21.281Z,101916.94
2023-04-27T15:58:47.613Z,101918.75
2023-04-27T16:01:13.988Z,101909.72
2023-04-27T16:03:40.800Z,101916.66
2023-04-27T16:06:07.506Z,101906.59
2023-04-27T16:08:33.917Z,101912.31
2023-04-27T16:11:00.380Z,101920.09
2023-04-27T16:13:31.902Z,101907.03
2023-04-27T16:15:58.364Z,101905.56
2023-04-27T16:18:24.841Z,101907.50
2023-04-27T16:20:51.755Z,101899.41
2023-04-27T16:23:20.696Z,101894.47
2023-04-27T16:25:47.095Z,101893.13
2023-04-27T16:28:15.407Z,101897.03
2023-04-27T16:30:41.734Z,101889.44
2023-04-27T16:33:08.107Z,101888.34
2023-04-27T16:35:34.861Z,101888.34
2023-04-27T16:38:01.583Z,101888.13
2023-04-27T16:40:30.414Z,101875.09
2023-04-27T16:42:56.801Z,101886.50
2023-04-27T16:45:29.007Z,101872.63
2023-04-27T16:47:59.704Z,101870.78
2023-04-27T16:50:26.384Z,101853.31
2023-04-27T16:52:54.420Z,101855.25
2023-04-27T16:55:21.142Z,101843.19
2023-04-27T16:57:47.655Z,101840.84
2023-04-27T17:00:18.526Z,101847.78
2023-04-27T17:02:45.093Z,101847.28
2023-04-27T17:05:12.713Z,101846.56
2023-04-27T17:07:42.854Z,101853.63
2023-04-27T17:10:09.516Z,101852.84
2023-04-27T17:12:39.498Z,101847.44
2023-04-27T17:15:12.234Z,101847.09
2023-04-27T17:17:38.706Z,101853.47
2023-04-27T17:20:09.544Z,101862.97
2023-04-27T17:22:36.563Z,101855.53
2023-04-27T17:25:03.990Z,101859.31
2023-04-27T17:27:33.725Z,101864.66
2023-04-27T17:30:00.553Z,101857.16
2023-04-27T17:32:26.906Z,101857.63
2023-04-27T17:34:57.458Z,101854.63
2023-04-27T17:37:26.578Z,101850.75
2023-04-27T17:39:54.707Z,101853.06
2023-04-27T17:42:26.258Z,101860.72
2023-04-27T17:44:52.713Z,101855.47
2023-04-27T17:47:25.124Z,101855.91
2023-04-27T17:49:51.469Z,101856.06
2023-04-27T17:52:17.830Z,101858.47
2023-04-27T17:54:52.962Z,101853.97
2023-04-27T17:57:19.362Z,101843.06
2023-04-27T18:05:14.018Z,101854.28
2023-04-27T18:07:43.471Z,101848.94
2023-04-27T18:10:17.408Z,101838.41
2023-04-27T18:12:46.771Z,101829.78
2023-04-27T18:15:17.934Z,101834.81
2023-04-27T18:17:48.852Z,101844.28
2023-04-27T18:20:15.976Z,101837.75
2023-04-27T18:22:44.932Z,101833.63
2023-04-27T18:25:13.202Z,101840.97
2023-04-27T18:27:39.627Z,101836.03
2023-04-27T18:30:09.445Z,101835.78
2023-04-27T18:32:36.018Z,101835.53
2023-04-27T18:35:02.929Z,101836.81
2023-04-27T18:37:31.645Z,101838.75
2023-04-27T18:40:01.016Z,101838.88
2023-04-27T18:42:27.434Z,101843.44
2023-04-27T18:45:00.439Z,101846.38
2023-04-27T18:47:28.115Z,101840.88
2023-04-27T18:49:59.600Z,101836.75
2023-04-27T18:52:28.771Z,101842.44
2023-04-27T18:54:55.281Z,101842.56
2023-04-27T18:57:44.764Z,101828.75
2023-04-27T19:00:14.968Z,101835.41
2023-04-27T19:02:47.737Z,101838.34
2023-04-27T19:05:19.227Z,101836.00
2023-04-27T19:07:50.946Z,101834.47
2023-04-27T19:10:17.448Z,101835.44
2023-04-27T19:12:43.775Z,101826.03
2023-04-27T19:15:13.965Z,101833.91
2023-04-27T19:17:43.505Z,101826.88
2023-04-27T19:20:18.642Z,101832.41
2023-04-27T19:22:45.094Z,101831.44
2023-04-27T19:25:11.638Z,101829.94
2023-04-27T19:27:42.059Z,101827.75
2023-04-27T19:30:11.455Z,101823.72
2023-04-27T19:32:43.702Z,101823.88
2023-04-27T19:35:13.746Z,101822.38
2023-04-27T19:37:42.723Z,101808.53
2023-04-27T19:40:16.324Z,101812.16
2023-04-27T19:42:42.760Z,101818.53
2023-04-27T19:45:13.365Z,101822.78
2023-04-27T19:47:43.692Z,101826.25
2023-04-27T19:50:21.117Z,101822.94
2023-04-27T19:52:47.461Z,101821.41
2023-04-27T19:58:08.071Z,101815.50
2023-04-27T20:00:35.745Z,101813.81
2023-04-27T20:03:08.763Z,101806.22
2023-04-27T20:05:41.378Z,101813.44
2023-04-27T20:08:11.476Z,101805.84
2023-04-27T20:10:37.840Z,101815.78
2023-04-27T20:13:07.464Z,101813.97
2023-04-27T20:15:37.675Z,101810.69
2023-04-27T20:18:07.110Z,101814.53
2023-04-27T20:20:36.290Z,101801.69
2023-04-27T20:23:02.733Z,101799.34
2023-04-27T20:25:50.221Z,101798.50
2023-04-27T20:28:22.695Z,101792.59
2023-04-27T20:30:49.126Z,101777.28
2023-04-27T20:33:15.671Z,101779.22
2023-04-27T20:35:45.013Z,101780.19
2023-04-27T20:38:12.315Z,101775.09
2023-04-27T20:40:44.326Z,101778.50
2023-04-27T20:43:10.805Z,101772.84
2023-04-27T20:45:37.200Z,101774.81
2023-04-27T20:48:09.297Z,101772.47
2023-04-27T20:50:39.602Z,101758.66
2023-04-27T20:53:09.269Z,101761.69
2023-04-27T20:55:38.557Z,101763.34
2023-04-27T20:58:04.975Z,101746.91
2023-04-27T21:00:36.658Z,101741.81
2023-04-27T21:03:07.225Z,101748.28
2023-04-27T21:05:44.529Z,101742.34
2023-04-27T21:08:11.318Z,101746.22
2023-04-27T21:10:39.277Z,101733.53
2023-04-27T21:13:08.864Z,101737.38
2023-04-27T21:15:35.681Z,101733.38
2023-04-27T21:18:22.466Z,101730.06
2023-04-27T21:20:55.963Z,101721.50
2023-04-27T21:23:22.917Z,101721.78
2023-04-27T21:25:50.384Z,101716.66
2023-04-27T21:28:16.716Z,101710.06
2023-04-27T21:30:43.101Z,101711.19
2023-04-27T21:33:12.627Z,101709.50
2023-04-27T21:35:42.203Z,101708.00
2023-04-27T21:38:11.509Z,101697.66
2023-04-27T21:40:38.357Z,101704.53
2023-04-27T21:43:06.169Z,101697.94
2023-04-27T21:45:32.872Z,101684.25
2023-04-27T21:48:00.027Z,101688.66
2023-04-27T21:50:29.660Z,101684.41
2023-04-27T21:52:56.298Z,101676.69
2023-04-27T21:55:32.619Z,101671.56
2023-04-27T21:57:59.788Z,101664.00
2023-04-27T22:00:29.660Z,101655.28
2023-04-27T22:02:56.753Z,101647.56
2023-04-27T22:05:25.979Z,101651.31
2023-04-27T22:07:58.796Z,101650.31
2023-04-27T22:10:25.520Z,101648.69
2023-04-27T22:13:17.594Z,101642.75
2023-04-27T22:15:48.280Z,101647.16
2023-04-27T22:18:18.905Z,101632.41
2023-04-27T22:20:48.461Z,101640.97
2023-04-27T22:23:23.552Z,101636.00
2023-04-27T22:25:50.197Z,101634.88
2023-04-27T22:28:24.785Z,101631.44
2023-04-27T22:30:52.611Z,101624.41
2023-04-27T22:33:19.269Z,101617.53
2023-04-27T22:35:55.088Z,101621.22
2023-04-27T22:38:21.849Z,101623.84
2023-04-27T22:40:54.033Z,101621.22
2023-04-27T22:43:24.106Z,101607.28
2023-04-27T22:45:55.607Z,101605.66
2023-04-27T22:48:22.048Z,101603.16
2023-04-27T22:50:48.430Z,101600.69
2023-04-27T22:53:18.955Z,101597.78
2023-04-27T22:55:48.420Z,101596.41
2023-04-27T22:58:22.248Z,101589.66
2023-04-27T23:00:51.387Z,101591.59
2023-04-27T23:03:25.187Z,101592.53
2023-04-27T23:05:54.822Z,101591.75
2023-04-27T23:08:27.453Z,101592.81
2023-04-27T23:10:56.831Z,101599.03
2023-04-27T23:13:30.844Z,101600.81
2023-04-27T23:16:00.060Z,101603.44
2023-04-27T23:18:33.808Z,101586.22
2023-04-27T23:21:03.428Z,101588.00
2023-04-27T23:23:29.969Z,101583.03
2023-04-27T23:25:57.687Z,101584.16
2023-04-27T23:28:27.019Z,101582.47
2023-04-27T23:31:02.065Z,101578.91
2023-04-27T23:33:29.014Z,101568.44
2023-04-27T23:35:56.235Z,101566.19
2023-04-27T23:38:26.322Z,101558.34
2023-04-27T23:40:52.734Z,101552.44
2023-04-27T23:43:19.217Z,101543.06
2023-04-27T23:45:55.801Z,101532.06
2023-04-27T23:48:22.177Z,101529.72
2023-04-27T23:50:49.154Z,101521.16
2023-04-27T23:53:22.856Z,101521.16
2023-04-27T23:55:52.304Z,101512.59
2023-04-27T23:58:22.794Z,101509.28
